Time;durP1;ratioP1;P1;durP2;ratioP2;P2;SDS_P1;SDS_P2;PMS_P1;PMS_P2;Temp;Humidity;BMP_temperature;BMP_pressure;BME280_temperature;BME280_humidity;BME280_pressure;Samples;Min_cycle;Max_cycle;Signal;HPM_P1;HPM_P2
2023/09/08 00:03:42;;;;;;;;;;;;;;;17.09;100.00;100976.65;181261;1266;43842;-62
2023/09/08 00:07:45;;;;;;;;;;;;;;;16.94;100.00;100977.14;181270;1263;58552;-62
2023/09/08 00:12:01;;;;;;;;;;;;;;;16.90;100.00;100980.55;181302;1264;42846;-62
2023/09/08 00:16:04;;;;;;;;;;;;;;;16.88;100.00;100982.55;181215;1264;43466;-62
2023/09/08 00:20:10;;;;;;;;;;;;;;;16.79;100.00;100984.31;181302;1264;43377;-64
2023/09/08 00:24:13;;;;;;;;;;;;;;;16.70;100.00;100985.77;181214;1263;43850;-62
2023/09/08 00:28:16;;;;;;;;;;;;;;;16.62;100.00;100981.85;181235;1263;57803;-63
2023/09/08 00:32:18;;;;;;;;;;;;;;;16.58;100.00;100979.89;181257;1264;43612;-62
2023/09/08 00:41:00;;;;;;;;;;;;;;;16.34;100.00;100971.63;167661;1264;44619;-89
2023/09/08 00:45:08;;;;;;;;;;;;;;;16.35;100.00;100974.02;180808;1264;43784;-90
2023/09/08 00:49:14;;;;;;;;;;;;;;;16.39;100.00;100973.77;180858;1265;58647;-90
2023/09/08 00:53:34;;;;;;;;;;;;;;;16.43;100.00;100975.06;180693;1265;43573;-89
2023/09/08 00:57:48;;;;;;;;;;;;;;;16.46;100.00;100970.33;180778;1264;43831;-89
2023/09/08 01:01:58;;;;;;;;;;;;;;;16.45;100.00;100971.48;180753;1264;43495;-89
2023/09/08 01:06:06;;;;;;;;;;;;;;;16.48;100.00;100976.19;180769;1264;43873;-90
2023/09/08 01:10:10;;;;;;;;;;;;;;;16.45;100.00;100976.02;180710;1264;59373;-89
2023/09/08 01:14:14;;;;;;;;;;;;;;;16.40;100.00;100974.05;180710;1264;43777;-90
2023/09/08 01:18:17;;;;;;;;;;;;;;;16.35;100.00;100975.63;180741;1264;43481;-90
2023/09/08 01:22:29;;;;;;;;;;;;;;;16.29;100.00;100972.82;180700;1266;43808;-89
2023/09/08 01:26:39;;;;;;;;;;;;;;;16.28;100.00;100974.89;180677;1265;43782;-90
2023/09/08 01:30:45;;;;;;;;;;;;;;;16.23;100.00;100972.14;180745;1264;57745;-90
2023/09/08 01:34:51;;;;;;;;;;;;;;;16.21;100.00;100967.29;180836;1265;43552;-90
2023/09/08 01:38:59;;;;;;;;;;;;;;;16.21;100.00;100965.20;180818;1264;43937;-90
2023/09/08 01:43:06;;;;;;;;;;;;;;;16.20;100.00;100964.94;180724;1264;43949;-89
2023/09/08 01:47:10;;;;;;;;;;;;;;;16.17;100.00;100967.35;180742;1265;44031;-90
2023/09/08 01:51:17;;;;;;;;;;;;;;;16.13;100.00;100966.40;180655;1264;59895;-90
2023/09/08 01:55:21;;;;;;;;;;;;;;;16.10;100.00;100966.38;180825;1265;44163;-90
2023/09/08 01:59:25;;;;;;;;;;;;;;;15.99;100.00;100963.30;181013;1265;42945;-89
2023/09/08 02:03:42;;;;;;;;;;;;;;;15.85;100.00;100962.94;180791;1264;43275;-90
2023/09/08 02:07:47;;;;;;;;;;;;;;;15.83;100.00;100959.29;180856;1264;43901;-90
2023/09/08 02:11:51;;;;;;;;;;;;;;;15.84;100.00;100957.83;180797;1264;59259;-90
2023/09/08 02:15:58;;;;;;;;;;;;;;;15.77;100.00;100956.48;180667;1264;43599;-90
2023/09/08 02:20:03;;;;;;;;;;;;;;;15.66;100.00;100956.84;180865;1264;43919;-90
2023/09/08 02:24:07;;;;;;;;;;;;;;;15.56;100.00;100951.11;180672;1265;43891;-90
2023/09/08 02:28:12;;;;;;;;;;;;;;;15.52;100.00;100946.26;180706;1266;43457;-90
2023/09/08 02:32:17;;;;;;;;;;;;;;;15.54;100.00;100944.45;180714;1264;59205;-90
2023/09/08 02:36:26;;;;;;;;;;;;;;;15.55;100.00;100944.55;180861;1264;45487;-90
2023/09/08 02:40:46;;;;;;;;;;;;;;;15.57;100.00;100945.64;181017;1263;43796;-90
2023/09/08 02:44:52;;;;;;;;;;;;;;;15.58;100.00;100945.77;180834;1263;44160;-91
2023/09/08 02:48:58;;;;;;;;;;;;;;;15.57;100.00;100938.89;180971;1264;43459;-90
2023/09/08 02:53:08;;;;;;;;;;;;;;;15.60;100.00;100938.49;181047;1263;58078;-90
2023/09/08 02:57:15;;;;;;;;;;;;;;;15.54;100.00;100940.75;181062;1262;43551;-90
2023/09/08 03:01:20;;;;;;;;;;;;;;;15.47;100.00;100939.63;180973;1263;43981;-89
2023/09/08 03:05:32;;;;;;;;;;;;;;;15.43;100.00;100939.09;180926;1264;43856;-90
2023/09/08 03:09:35;;;;;;;;;;;;;;;15.37;100.00;100931.56;180932;1264;43868;-89
2023/09/08 03:13:39;;;;;;;;;;;;;;;15.24;100.00;100928.66;180869;1263;60013;-90
2023/09/08 03:17:48;;;;;;;;;;;;;;;15.19;100.00;100926.27;180886;1263;43942;-89
2023/09/08 03:21:53;;;;;;;;;;;;;;;15.07;100.00;100921.96;180954;1264;43514;-89
2023/09/08 03:26:01;;;;;;;;;;;;;;;14.85;100.00;100916.40;181010;1263;43559;-90
2023/09/08 03:30:14;;;;;;;;;;;;;;;14.67;100.00;100915.64;181019;1263;43828;-90
2023/09/08 03:34:20;;;;;;;;;;;;;;;14.61;100.00;100914.10;180915;1263;59396;-90
2023/09/08 03:38:24;;;;;;;;;;;;;;;14.65;100.00;100916.00;180830;1264;44786;-90
2023/09/08 03:42:28;;;;;;;;;;;;;;;14.67;100.00;100917.66;180897;1264;43576;-90
2023/09/08 03:46:32;;;;;;;;;;;;;;;14.70;100.00;100917.39;180913;1264;43492;-90
2023/09/08 03:50:38;;;;;;;;;;;;;;;14.79;100.00;100917.89;180984;1264;43571;-89
2023/09/08 03:54:41;;;;;;;;;;;;;;;14.84;100.00;100917.57;180956;1263;59640;-89
2023/09/08 03:58:45;;;;;;;;;;;;;;;14.86;100.00;100922.92;180888;1264;43494;-90
2023/09/08 04:02:49;;;;;;;;;;;;;;;14.75;100.00;100920.68;180915;1263;43751;-89
2023/09/08 04:06:53;;;;;;;;;;;;;;;14.52;100.00;100923.98;180959;1263;43775;-89
2023/09/08 04:10:57;;;;;;;;;;;;;;;14.42;100.00;100922.85;180883;1264;43761;-89
2023/09/08 04:15:01;;;;;;;;;;;;;;;14.43;100.00;100920.99;180973;1263;59391;-90
2023/09/08 04:19:06;;;;;;;;;;;;;;;14.40;100.00;100925.31;180886;1264;43584;-90
2023/09/08 04:23:13;;;;;;;;;;;;;;;14.45;100.00;100921.35;180843;1263;43592;-89
2023/09/08 04:27:20;;;;;;;;;;;;;;;14.53;100.00;100921.20;180946;1263;43715;-89
2023/09/08 04:31:27;;;;;;;;;;;;;;;14.58;100.00;100927.73;180761;1264;44087;-89
2023/09/08 04:35:31;;;;;;;;;;;;;;;14.62;100.00;100929.38;180874;1264;58051;-90
2023/09/08 04:39:36;;;;;;;;;;;;;;;14.63;100.00;100925.63;180931;1264;43950;-89
2023/09/08 04:43:40;;;;;;;;;;;;;;;14.63;100.00;100926.41;180946;1264;43843;-89
2023/09/08 04:47:44;;;;;;;;;;;;;;;14.91;100.00;100926.58;180858;1264;43942;-89
2023/09/08 04:51:47;;;;;;;;;;;;;;;15.51;100.00;100923.80;180921;1264;43902;-90
2023/09/08 04:55:51;;;;;;;;;;;;;;;16.08;100.00;100912.17;180882;1263;60622;-90
2023/09/08 04:59:55;;;;;;;;;;;;;;;16.57;100.00;100915.21;180962;1263;43524;-89
2023/09/08 05:03:59;;;;;;;;;;;;;;;17.14;100.00;100918.98;180945;1263;43767;-90
2023/09/08 05:08:03;;;;;;;;;;;;;;;17.81;100.00;100919.73;180879;1263;43908;-89
2023/09/08 05:12:07;;;;;;;;;;;;;;;18.51;100.00;100911.88;180889;1262;43683;-89
2023/09/08 05:16:11;;;;;;;;;;;;;;;19.18;100.00;100909.80;180851;1264;57902;-89
2023/09/08 05:20:16;;;;;;;;;;;;;;;19.72;99.95;100908.93;180922;1264;43935;-89
2023/09/08 05:24:20;;;;;;;;;;;;;;;20.23;99.99;100902.79;180969;1263;43813;-90
2023/09/08 05:28:25;;;;;;;;;;;;;;;20.68;96.27;100909.20;180909;1263;43541;-89
2023/09/08 05:32:29;;;;;;;;;;;;;;;21.00;93.81;100912.13;180892;1263;43803;-90
2023/09/08 05:36:35;;;;;;;;;;;;;;;21.33;91.20;100914.79;180963;1264;58946;-90
2023/09/08 05:40:40;;;;;;;;;;;;;;;21.60;89.08;100914.78;180949;1264;43937;-89
2023/09/08 05:44:47;;;;;;;;;;;;;;;21.67;86.19;100918.38;180909;1264;43869;-90
2023/09/08 05:48:53;;;;;;;;;;;;;;;21.75;86.89;100913.92;180881;1263;43722;-90
2023/09/08 05:53:00;;;;;;;;;;;;;;;21.92;86.25;100910.16;180971;1263;43929;-90
2023/09/08 05:57:04;;;;;;;;;;;;;;;21.96;85.64;100909.13;180994;1263;59292;-90
2023/09/08 06:01:08;;;;;;;;;;;;;;;22.06;87.35;100911.02;180951;1263;43676;-90
2023/09/08 06:05:15;;;;;;;;;;;;;;;22.13;86.67;100911.08;181019;1264;43578;-90
2023/09/08 06:09:19;;;;;;;;;;;;;;;22.03;86.28;100913.67;181072;1263;44644;-90
2023/09/08 06:13:26;;;;;;;;;;;;;;;21.95;87.74;100915.05;180940;1264;43698;-90
2023/09/08 06:17:30;;;;;;;;;;;;;;;21.88;89.61;100911.15;180968;1264;59446;-90
2023/09/08 06:21:37;;;;;;;;;;;;;;;21.83;90.20;100910.32;180969;1263;43525;-90
2023/09/08 06:25:44;;;;;;;;;;;;;;;21.58;91.07;100911.45;180942;1262;43878;-89
2023/09/08 06:29:51;;;;;;;;;;;;;;;21.40;92.47;100910.29;181042;1264;43974;-89
2023/09/08 06:33:56;;;;;;;;;;;;;;;21.34;93.65;100908.21;180958;1262;43934;-89
2023/09/08 06:38:00;;;;;;;;;;;;;;;21.37;94.43;100912.27;180971;1262;59419;-89
2023/09/08 06:42:05;;;;;;;;;;;;;;;21.56;95.47;100912.54;181075;1262;43873;-90
2023/09/08 06:46:19;;;;;;;;;;;;;;;;;;;;;
2023/09/08 06:50:26;;;;;;;;;;;;;;;21.02;97.91;100917.30;181022;1262;43886;-91
2023/09/08 06:54:32;;;;;;;;;;;;;;;20.89;99.07;100913.49;181068;1262;43943;-90
2023/09/08 06:58:38;;;;;;;;;;;;;;;20.85;99.90;100911.28;180899;1263;59262;-90
2023/09/08 07:02:43;;;;;;;;;;;;;;;21.03;99.98;100910.89;181021;1264;43941;-91
2023/09/08 07:06:54;;;;;;;;;;;;;;;21.25;99.06;100909.88;181069;1263;43952;-91
2023/09/08 07:10:59;;;;;;;;;;;;;;;21.41;98.00;100911.77;181064;1264;43545;-90
2023/09/08 07:15:15;;;;;;;;;;;;;;;;;;;;;
2023/09/08 07:19:20;;;;;;;;;;;;;;;21.78;96.68;100911.66;181061;1264;59162;-91
2023/09/08 07:23:26;;;;;;;;;;;;;;;21.98;96.15;100908.30;181049;1264;43691;-90
2023/09/08 07:27:32;;;;;;;;;;;;;;;22.08;94.63;100908.90;181020;1262;43563;-91
2023/09/08 07:31:41;;;;;;;;;;;;;;;22.22;93.82;100905.48;181032;1264;43871;-91
2023/09/08 07:35:55;;;;;;;;;;;;;;;22.24;95.35;100902.85;181135;1264;47071;-90
2023/09/08 07:40:02;;;;;;;;;;;;;;;22.38;95.88;100906.75;181045;1264;59031;-90
2023/09/08 07:44:07;;;;;;;;;;;;;;;22.65;93.45;100909.14;181073;1263;43986;-91
2023/09/08 07:48:13;;;;;;;;;;;;;;;22.81;92.11;100911.49;181115;1263;43635;-90
2023/09/08 07:52:17;;;;;;;;;;;;;;;22.97;92.06;100919.55;180992;1264;47047;-89
2023/09/08 07:56:23;;;;;;;;;;;;;;;23.07;90.60;100917.65;181092;1263;48064;-89
2023/09/08 08:00:33;;;;;;;;;;;;;;;23.19;90.59;100918.66;180977;1263;59932;-90
2023/09/08 08:04:42;;;;;;;;;;;;;;;23.38;91.02;100916.51;181035;1263;47994;-90
2023/09/08 08:08:46;;;;;;;;;;;;;;;23.60;89.34;100913.34;181080;1264;46040;-90
2023/09/08 08:12:53;;;;;;;;;;;;;;;23.70;89.42;100910.52;181105;1265;47405;-91
2023/09/08 08:17:03;;;;;;;;;;;;;;;23.82;87.08;100907.52;181095;1263;45920;-90
2023/09/08 08:21:12;;;;;;;;;;;;;;;23.92;88.01;100901.20;181061;1264;59027;-91
2023/09/08 08:30:03;;;;;;;;;;;;;;;24.15;85.74;100892.78;174936;1264;85675;-59
2023/09/08 08:34:06;;;;;;;;;;;;;;;24.25;85.07;100892.45;181237;1263;43740;-61
2023/09/08 08:38:36;;;;;;;;;;;;;;;24.32;85.94;100887.17;181270;1262;42831;-61
2023/09/08 08:42:40;;;;;;;;;;;;;;;24.43;83.94;100886.66;181195;1264;58148;-61
2023/09/08 08:46:44;;;;;;;;;;;;;;;24.48;84.20;100881.16;181217;1263;43379;-62
2023/09/08 08:50:48;;;;;;;;;;;;;;;24.56;83.47;100879.48;181205;1264;43680;-61
2023/09/08 08:54:50;;;;;;;;;;;;;;;24.55;83.97;100878.55;181185;1264;43471;-61
2023/09/08 08:58:54;;;;;;;;;;;;;;;24.65;82.98;100878.29;181181;1264;43434;-61
2023/09/08 09:03:00;;;;;;;;;;;;;;;24.66;83.62;100874.33;181118;1264;57786;-61
2023/09/08 09:07:18;;;;;;;;;;;;;;;24.82;84.76;100875.88;181131;1264;43415;-61
2023/09/08 09:11:21;;;;;;;;;;;;;;;24.95;84.02;100871.39;181081;1265;42790;-61
2023/09/08 09:15:31;;;;;;;;;;;;;;;25.08;82.83;100870.31;181183;1265;43405;-61
2023/09/08 09:19:37;;;;;;;;;;;;;;;25.32;84.67;100871.91;181212;1263;42813;-60
2023/09/08 09:23:39;;;;;;;;;;;;;;;25.45;82.68;100870.31;181157;1264;59156;-61
2023/09/08 09:27:45;;;;;;;;;;;;;;;25.49;79.65;100867.95;181194;1264;42862;-61
2023/09/08 09:31:55;;;;;;;;;;;;;;;25.47;81.75;100863.67;181234;1264;43196;-61
2023/09/08 09:35:59;;;;;;;;;;;;;;;25.62;81.57;100866.05;181211;1264;43568;-61
2023/09/08 09:40:05;;;;;;;;;;;;;;;25.73;80.38;100863.60;180990;1264;271353;-61
2023/09/08 09:44:09;;;;;;;;;;;;;;;25.88;80.03;100857.85;181083;1264;58235;-61
2023/09/08 09:48:12;;;;;;;;;;;;;;;25.97;77.56;100852.97;181096;1265;43518;-61
2023/09/08 09:52:22;;;;;;;;;;;;;;;25.96;77.37;100853.40;181149;1264;43558;-60
2023/09/08 09:56:51;;;;;;;;;;;;;;;26.00;78.12;100849.45;180733;1271;44032;-60
2023/09/08 10:00:54;;;;;;;;;;;;;;;26.11;78.55;100842.66;180732;1269;42941;-60
2023/09/08 10:05:09;;;;;;;;;;;;;;;26.21;75.88;100835.91;180777;1269;58075;-59
2023/09/08 10:09:13;;;;;;;;;;;;;;;26.31;76.57;100833.44;180748;1269;42953;-60
2023/09/08 10:13:22;;;;;;;;;;;;;;;26.44;75.87;100830.35;180748;1270;43631;-60
2023/09/08 10:17:30;;;;;;;;;;;;;;;26.60;75.69;100826.60;180707;1270;43769;-60
2023/09/08 10:21:36;;;;;;;;;;;;;;;26.74;73.75;100827.44;181077;1265;43474;-60
2023/09/08 10:25:42;;;;;;;;;;;;;;;26.81;72.17;100825.05;181136;1263;59019;-61
2023/09/08 10:29:45;;;;;;;;;;;;;;;26.80;71.12;100823.17;181120;1264;43472;-59
2023/09/08 10:33:48;;;;;;;;;;;;;;;26.87;71.28;100820.86;181044;1268;42799;-60
2023/09/08 10:38:11;;;;;;;;;;;;;;;26.85;70.88;100817.86;179773;1276;43207;-60
2023/09/08 10:58:03;;;;;;;;;;;;;;;27.22;70.46;100804.03;163288;1287;6476107;-88
2023/09/08 11:02:06;;;;;;;;;;;;;;;27.37;68.47;100799.43;178656;1269;44132;-88
2023/09/08 11:06:11;;;;;;;;;;;;;;;27.47;67.89;100790.13;177994;1270;45880;-88
2023/09/08 11:10:14;;;;;;;;;;;;;;;27.45;65.91;100789.90;179528;1264;60047;-88
2023/09/08 11:14:17;;;;;;;;;;;;;;;27.54;67.34;100791.93;179648;1266;45478;-87
2023/09/08 11:18:28;;;;;;;;;;;;;;;27.53;66.83;100789.20;179066;1265;45798;-87
2023/09/08 11:22:31;;;;;;;;;;;;;;;27.67;66.02;100786.80;179334;1263;45813;-89
2023/09/08 11:26:35;;;;;;;;;;;;;;;27.90;64.65;100786.86;180478;1263;43736;-87
2023/09/08 11:30:42;;;;;;;;;;;;;;;28.08;63.67;100782.77;179459;1264;58420;-88
2023/09/08 11:34:45;;;;;;;;;;;;;;;28.24;63.02;100779.96;178915;1268;44965;-87
2023/09/08 11:38:49;;;;;;;;;;;;;;;28.47;61.96;100775.67;179051;1259;45872;-88
2023/09/08 11:42:53;;;;;;;;;;;;;;;28.64;59.22;100773.81;178376;1259;45879;-88
2023/09/08 11:46:57;;;;;;;;;;;;;;;28.78;59.31;100774.10;179294;1259;44515;-88
2023/09/08 11:51:00;;;;;;;;;;;;;;;28.93;59.77;100771.70;178789;1260;57482;-89
2023/09/08 11:55:04;;;;;;;;;;;;;;;28.98;57.95;100762.29;178884;1260;45661;-88
2023/09/08 11:59:10;;;;;;;;;;;;;;;29.02;58.33;100759.91;179380;1259;43497;-88
2023/09/08 12:03:17;;;;;;;;;;;;;;;29.13;57.89;100761.27;179303;1259;45763;-88
2023/09/08 12:07:21;;;;;;;;;;;;;;;29.23;57.71;100755.52;178371;1259;45875;-88
2023/09/08 12:11:24;;;;;;;;;;;;;;;29.30;58.13;100756.63;178578;1259;58058;-88
2023/09/08 12:15:33;;;;;;;;;;;;;;;29.32;59.53;100755.55;179931;1257;45925;-89
2023/09/08 12:19:37;;;;;;;;;;;;;;;29.39;58.52;100746.56;179672;1257;45761;-88
2023/09/08 12:23:51;;;;;;;;;;;;;;;29.37;59.28;100740.23;179267;1257;45730;-89
2023/09/08 12:27:54;;;;;;;;;;;;;;;29.44;60.52;100740.66;179009;1257;45805;-88
2023/09/08 12:32:00;;;;;;;;;;;;;;;29.48;60.68;100739.16;179880;1256;58968;-88
2023/09/08 12:36:16;;;;;;;;;;;;;;;29.55;58.83;100735.35;179501;1257;45897;-88
2023/09/08 12:40:21;;;;;;;;;;;;;;;29.49;58.52;100733.98;179899;1257;45863;-88
2023/09/08 12:44:24;;;;;;;;;;;;;;;29.62;59.48;100731.58;179428;1257;45790;-87
2023/09/08 12:48:28;;;;;;;;;;;;;;;29.64;58.28;100731.88;179880;1257;44908;-88
2023/09/08 12:52:31;;;;;;;;;;;;;;;29.70;56.64;100727.11;178566;1258;57940;-87
2023/09/08 12:56:35;;;;;;;;;;;;;;;29.78;57.25;100725.58;179191;1257;45917;-88
2023/09/08 13:00:38;;;;;;;;;;;;;;;29.84;57.25;100723.22;180153;1258;44623;-88
2023/09/08 13:04:41;;;;;;;;;;;;;;;29.87;56.92;100719.54;178986;1257;45769;-88
2023/09/08 13:08:44;;;;;;;;;;;;;;;29.89;57.32;100709.63;179603;1257;45798;-88
2023/09/08 13:12:51;;;;;;;;;;;;;;;29.91;57.26;100703.39;179893;1257;59289;-88
2023/09/08 13:16:55;;;;;;;;;;;;;;;29.94;57.47;100694.88;180205;1257;43676;-89
2023/09/08 13:20:58;;;;;;;;;;;;;;;29.93;57.67;100694.15;180483;1256;45798;-88
2023/09/08 13:25:01;;;;;;;;;;;;;;;29.92;57.77;100688.49;180160;1260;45852;-89
2023/09/08 13:29:05;;;;;;;;;;;;;;;30.00;57.16;100686.60;179301;1256;43876;-89
2023/09/08 13:33:08;;;;;;;;;;;;;;;30.03;57.64;100683.88;179397;1257;56988;-89
2023/09/08 13:37:14;;;;;;;;;;;;;;;30.01;59.45;100680.98;179471;1256;45846;-90
2023/09/08 13:41:18;;;;;;;;;;;;;;;29.99;57.76;100677.98;179462;1256;43933;-88
2023/09/08 13:45:22;;;;;;;;;;;;;;;29.97;57.87;100672.79;179517;1257;45725;-89
2023/09/08 13:49:27;;;;;;;;;;;;;;;29.97;58.14;100667.47;179327;1256;45845;-91
2023/09/08 13:53:34;;;;;;;;;;;;;;;29.97;57.88;100666.92;179197;1257;58489;-89
2023/09/08 13:57:48;;;;;;;;;;;;;;;29.91;56.81;100664.28;179196;1256;45840;-90
2023/09/08 14:01:53;;;;;;;;;;;;;;;29.86;58.51;100654.94;179110;1256;44490;-90
2023/09/08 14:06:18;;;;;;;;;;;;;;;29.85;57.78;100659.95;179319;1258;45975;-88
2023/09/08 14:10:27;;;;;;;;;;;;;;;29.86;57.62;100654.00;179120;1256;47852;-90
2023/09/08 14:14:43;;;;;;;;;;;;;;;29.85;57.89;100653.27;180039;1257;58058;-89
2023/09/08 14:18:47;;;;;;;;;;;;;;;29.85;56.40;100650.20;180026;1256;44810;-89
2023/09/08 14:22:50;;;;;;;;;;;;;;;29.88;56.72;100648.87;179667;1257;45686;-89
2023/09/08 14:26:54;;;;;;;;;;;;;;;29.85;55.93;100645.75;179708;1257;45995;-89
2023/09/08 14:30:57;;;;;;;;;;;;;;;29.82;55.79;100642.63;179620;1257;45407;-86
2023/09/08 14:35:01;;;;;;;;;;;;;;;29.79;55.89;100643.41;179075;1257;59259;-89
2023/09/08 14:39:04;;;;;;;;;;;;;;;29.81;55.84;100644.26;179699;1257;45746;-90
2023/09/08 14:43:08;;;;;;;;;;;;;;;29.79;55.31;100642.48;178807;1257;45393;-88
2023/09/08 14:47:12;;;;;;;;;;;;;;;29.87;55.92;100638.46;179021;1257;44705;-89
2023/09/08 14:51:16;;;;;;;;;;;;;;;29.88;55.15;100636.59;178810;1258;46473;-88
2023/09/08 14:55:20;;;;;;;;;;;;;;;29.81;55.32;100638.52;178670;1257;57432;-88
2023/09/08 14:59:23;;;;;;;;;;;;;;;29.79;55.31;100636.28;179849;1257;45894;-88
2023/09/08 15:03:27;;;;;;;;;;;;;;;29.77;54.80;100631.09;179065;1259;46285;-89
2023/09/08 15:07:31;;;;;;;;;;;;;;;29.77;54.61;100628.73;180226;1257;45954;-87
2023/09/08 15:11:37;;;;;;;;;;;;;;;29.72;54.99;100625.30;179359;1257;45740;-89
2023/09/08 15:15:41;;;;;;;;;;;;;;;29.67;54.97;100627.45;180282;1257;60325;-89
2023/09/08 15:19:44;;;;;;;;;;;;;;;29.60;54.87;100630.13;180286;1257;45911;-90
2023/09/08 15:23:48;;;;;;;;;;;;;;;29.54;55.26;100625.57;179275;1257;45824;-90
2023/09/08 15:27:52;;;;;;;;;;;;;;;29.48;55.17;100625.52;180772;1256;45366;-89
2023/09/08 15:31:56;;;;;;;;;;;;;;;29.46;55.49;100624.52;180505;1256;43839;-88
2023/09/08 15:35:59;;;;;;;;;;;;;;;29.42;55.37;100622.52;179992;1256;59809;-87
2023/09/08 15:40:03;;;;;;;;;;;;;;;29.32;57.45;100619.52;180310;1257;45886;-87
2023/09/08 15:44:07;;;;;;;;;;;;;;;29.25;58.15;100619.55;179318;1257;45756;-87
2023/09/08 15:48:11;;;;;;;;;;;;;;;29.11;57.09;100621.12;180012;1257;45737;-88
2023/09/08 15:52:14;;;;;;;;;;;;;;;29.01;57.96;100619.59;179224;1260;45888;-86
2023/09/08 15:56:19;;;;;;;;;;;;;;;28.92;59.08;100617.77;178817;1260;58058;-88
2023/09/08 16:00:23;;;;;;;;;;;;;;;28.82;59.72;100609.38;180061;1256;45009;-89
2023/09/08 16:04:26;;;;;;;;;;;;;;;28.67;60.51;100612.60;179486;1256;45364;-90
2023/09/08 16:08:31;;;;;;;;;;;;;;;28.53;60.68;100613.52;180248;1256;45812;-88
2023/09/08 16:12:38;;;;;;;;;;;;;;;28.32;60.59;100612.12;179626;1256;45878;-90
2023/09/08 16:16:41;;;;;;;;;;;;;;;28.15;60.01;100609.66;178997;1256;58092;-90
2023/09/08 16:20:45;;;;;;;;;;;;;;;27.93;60.80;100606.58;180292;1256;44306;-89
2023/09/08 16:24:48;;;;;;;;;;;;;;;27.78;62.27;100603.35;180356;1258;43797;-90
2023/09/08 16:28:52;;;;;;;;;;;;;;;27.62;64.12;100603.37;179649;1259;45766;-90
2023/09/08 16:32:55;;;;;;;;;;;;;;;27.44;64.99;100605.83;179033;1256;45979;-89
2023/09/08 16:36:59;;;;;;;;;;;;;;;27.28;65.66;100604.13;179294;1257;60755;-88
2023/09/08 16:41:02;;;;;;;;;;;;;;;27.15;66.60;100605.59;179963;1257;45667;-89
2023/09/08 16:45:06;;;;;;;;;;;;;;;26.95;67.02;100604.86;180385;1256;45755;-90
2023/09/08 16:49:09;;;;;;;;;;;;;;;26.78;67.71;100603.30;179949;1257;45740;-89
2023/09/08 16:53:13;;;;;;;;;;;;;;;26.58;68.55;100601.21;179853;1257;45760;-90
2023/09/08 16:57:17;;;;;;;;;;;;;;;26.37;69.39;100600.50;180167;1257;57851;-89
2023/09/08 17:01:23;;;;;;;;;;;;;;;26.20;70.24;100602.52;179434;1260;45632;-89
2023/09/08 17:05:28;;;;;;;;;;;;;;;26.04;71.28;100599.52;178924;1257;45822;-89
2023/09/08 17:09:31;;;;;;;;;;;;;;;25.90;71.81;100595.52;178197;1260;45743;-89
2023/09/08 17:13:35;;;;;;;;;;;;;;;25.77;72.21;100595.48;178908;1258;44454;-90
2023/09/08 17:17:39;;;;;;;;;;;;;;;25.59;72.93;100596.80;179719;1260;59645;-90
2023/09/08 17:21:45;;;;;;;;;;;;;;;25.42;73.67;100598.45;178395;1260;45807;-90
2023/09/08 17:25:50;;;;;;;;;;;;;;;25.26;74.19;100598.73;178834;1260;45839;-90
2023/09/08 17:29:53;;;;;;;;;;;;;;;25.08;75.31;100601.45;178973;1259;44478;-89
2023/09/08 17:33:57;;;;;;;;;;;;;;;24.90;76.05;100602.95;179181;1256;45630;-89
2023/09/08 17:38:00;;;;;;;;;;;;;;;24.75;76.57;100606.79;178587;1259;58017;-89
2023/09/08 17:42:03;;;;;;;;;;;;;;;24.60;77.15;100607.88;178702;1259;46026;-88
2023/09/08 17:46:07;;;;;;;;;;;;;;;24.45;77.80;100610.88;179979;1256;45836;-89
2023/09/08 17:50:10;;;;;;;;;;;;;;;24.26;78.63;100609.73;180028;1256;45943;-89
2023/09/08 17:54:13;;;;;;;;;;;;;;;24.11;79.33;100612.32;179728;1256;43933;-89
2023/09/08 17:58:16;;;;;;;;;;;;;;;23.93;80.16;100615.58;178535;1259;58012;-89
2023/09/08 18:02:20;;;;;;;;;;;;;;;23.78;81.06;100612.70;179204;1260;45749;-89
2023/09/08 18:06:24;;;;;;;;;;;;;;;23.68;81.72;100618.58;178682;1257;45895;-89
2023/09/08 18:10:27;;;;;;;;;;;;;;;23.58;82.16;100622.38;179475;1256;45901;-88
2023/09/08 18:14:30;;;;;;;;;;;;;;;23.48;82.82;100618.34;179326;1256;44113;-89
2023/09/08 18:18:33;;;;;;;;;;;;;;;23.39;82.92;100623.44;179664;1260;59004;-89
2023/09/08 18:22:37;;;;;;;;;;;;;;;23.28;83.32;100627.73;179691;1256;46616;-89
2023/09/08 18:26:41;;;;;;;;;;;;;;;23.19;83.48;100627.92;179782;1257;45700;-89
2023/09/08 18:30:47;;;;;;;;;;;;;;;23.12;83.94;100629.15;178488;1259;45821;-90
2023/09/08 18:34:53;;;;;;;;;;;;;;;23.03;84.15;100630.02;178565;1257;45891;-91
2023/09/08 18:38:57;;;;;;;;;;;;;;;22.92;84.87;100631.66;178499;1257;59287;-89
2023/09/08 18:43:02;;;;;;;;;;;;;;;22.77;85.97;100638.11;177852;1261;45830;-88
2023/09/08 18:47:06;;;;;;;;;;;;;;;22.56;87.07;100643.89;178586;1259;44492;-90
2023/09/08 18:51:09;;;;;;;;;;;;;;;22.38;87.52;100646.17;178460;1257;45771;-89
2023/09/08 18:55:16;;;;;;;;;;;;;;;22.27;88.72;100645.66;178320;1257;45806;-90
2023/09/08 18:59:22;;;;;;;;;;;;;;;22.12;89.33;100649.71;177858;1260;58070;-88
2023/09/08 19:03:25;;;;;;;;;;;;;;;21.95;90.24;100645.81;178002;1259;45743;-89
2023/09/08 19:07:31;;;;;;;;;;;;;;;21.76;90.74;100650.31;178203;1259;45891;-90
2023/09/08 19:11:37;;;;;;;;;;;;;;;21.59;92.81;100650.89;177998;1257;45887;-89
2023/09/08 19:15:40;;;;;;;;;;;;;;;21.46;93.19;100645.81;178009;1256;45885;-89
2023/09/08 19:19:44;;;;;;;;;;;;;;;21.38;93.07;100651.15;178437;1256;59374;-88
2023/09/08 19:23:49;;;;;;;;;;;;;;;21.34;93.74;100649.12;178186;1256;46000;-89
2023/09/08 19:27:56;;;;;;;;;;;;;;;21.27;94.26;100646.05;177712;1257;45785;-90
2023/09/08 19:32:06;;;;;;;;;;;;;;;21.21;94.66;100648.56;177888;1256;45970;-91
2023/09/08 19:36:10;;;;;;;;;;;;;;;21.10;94.95;100648.00;178055;1259;45774;-88
2023/09/08 19:40:13;;;;;;;;;;;;;;;21.01;95.11;100649.91;177693;1257;59382;-88
2023/09/08 19:44:16;;;;;;;;;;;;;;;20.92;95.95;100649.31;177543;1260;45853;-88
2023/09/08 19:48:19;;;;;;;;;;;;;;;20.85;96.71;100648.90;178015;1257;45824;-88
2023/09/08 19:52:23;;;;;;;;;;;;;;;20.82;96.81;100648.98;177829;1256;45981;-88
2023/09/08 19:56:31;;;;;;;;;;;;;;;20.80;96.77;100648.04;178445;1257;45771;-88
2023/09/08 20:00:34;;;;;;;;;;;;;;;20.74;96.74;100649.30;178024;1259;59778;-91
2023/09/08 20:04:45;;;;;;;;;;;;;;;20.65;96.65;100650.23;178058;1257;45831;-90
2023/09/08 20:08:50;;;;;;;;;;;;;;;20.57;97.65;100650.91;177972;1256;45993;-88
2023/09/08 20:12:53;;;;;;;;;;;;;;;20.49;97.55;100647.00;177888;1257;45836;-89
2023/09/08 20:17:00;;;;;;;;;;;;;;;20.43;98.57;100652.70;178675;1257;45810;-87
2023/09/08 20:21:04;;;;;;;;;;;;;;;20.35;98.90;100651.06;178901;1261;59337;-87
2023/09/08 20:25:09;;;;;;;;;;;;;;;20.29;98.73;100651.09;178633;1256;45765;-87
2023/09/08 20:29:12;;;;;;;;;;;;;;;20.23;98.63;100647.27;178331;1257;44508;-87
2023/09/08 20:33:16;;;;;;;;;;;;;;;20.19;98.51;100647.66;178611;1256;45721;-88
2023/09/08 20:37:20;;;;;;;;;;;;;;;20.10;98.68;100652.20;177945;1261;45894;-88
2023/09/08 20:41:23;;;;;;;;;;;;;;;20.07;99.74;100655.20;178609;1256;59378;-88
2023/09/08 20:45:26;;;;;;;;;;;;;;;20.07;99.66;100659.66;179134;1257;45797;-88
2023/09/08 20:49:30;;;;;;;;;;;;;;;19.99;99.70;100660.75;178163;1257;45834;-88
2023/09/08 20:53:35;;;;;;;;;;;;;;;19.87;99.88;100658.84;178847;1261;45801;-88
2023/09/08 20:57:39;;;;;;;;;;;;;;;19.78;99.91;100663.95;177818;1257;45765;-87
2023/09/08 21:01:42;;;;;;;;;;;;;;;19.73;100.00;100662.89;178332;1259;57788;-87
2023/09/08 21:05:45;;;;;;;;;;;;;;;19.72;100.00;100664.70;178004;1257;46000;-87
2023/09/08 21:09:48;;;;;;;;;;;;;;;19.71;100.00;100665.71;178205;1262;45882;-89